createdAt,value
2023-05-21T00:00:11.638Z,25.70
2023-05-21T00:01:11.632Z,26.80
2023-05-21T00:02:11.646Z,30.70
2023-05-21T00:03:11.703Z,25.90
2023-05-21T00:04:11.720Z,26.80
2023-05-21T00:05:14.375Z,28.70
2023-05-21T00:06:12.674Z,27.70
2023-05-21T00:07:11.582Z,27.10
2023-05-21T00:08:11.558Z,29.50
2023-05-21T00:09:11.584Z,26.70
2023-05-21T00:10:11.610Z,24.50
2023-05-21T00:11:11.571Z,27.20
2023-05-21T00:12:11.532Z,27.20
2023-05-21T00:13:11.515Z,27.20
2023-05-21T00:14:11.558Z,27.80
2023-05-21T00:15:11.527Z,32.40
2023-05-21T00:16:11.631Z,28.80
2023-05-21T00:17:11.500Z,28.00
2023-05-21T00:18:11.557Z,26.70
2023-05-21T00:19:11.505Z,25.20
2023-05-21T00:20:11.485Z,28.20
2023-05-21T00:21:11.490Z,27.00
2023-05-21T00:22:11.444Z,29.10
2023-05-21T00:23:11.449Z,25.40
2023-05-21T00:24:11.470Z,24.90
2023-05-21T00:25:11.449Z,30.90
2023-05-21T00:26:11.457Z,26.80
2023-05-21T00:27:11.441Z,26.30
2023-05-21T00:28:11.401Z,29.10
2023-05-21T00:29:11.406Z,28.20
2023-05-21T00:30:11.429Z,30.10
2023-05-21T00:31:11.441Z,26.30
2023-05-21T00:32:11.426Z,28.60
2023-05-21T00:33:11.405Z,27.10
2023-05-21T00:34:11.356Z,27.10
2023-05-21T00:35:11.397Z,30.60
2023-05-21T00:36:11.380Z,27.30
2023-05-21T00:37:11.358Z,27.20
2023-05-21T00:38:11.311Z,28.80
2023-05-21T00:39:11.330Z,31.20
2023-05-21T00:40:11.341Z,27.00
2023-05-21T00:41:11.281Z,29.70
2023-05-21T00:42:11.310Z,30.00
2023-05-21T00:43:11.304Z,28.40
2023-05-21T00:44:11.274Z,29.20
2023-05-21T00:45:11.309Z,29.60
2023-05-21T00:46:11.362Z,29.60
2023-05-21T00:47:11.290Z,29.40
2023-05-21T00:48:11.222Z,29.10
2023-05-21T00:49:11.284Z,29.60
2023-05-21T00:50:11.227Z,28.80
2023-05-21T00:51:11.246Z,28.60
2023-05-21T00:52:11.224Z,30.50
2023-05-21T00:53:11.187Z,29.20
2023-05-21T00:54:11.224Z,30.80
2023-05-21T00:55:11.215Z,32.40
2023-05-21T00:56:11.174Z,28.60
2023-05-21T00:57:11.190Z,31.70
2023-05-21T00:58:11.151Z,31.50
2023-05-21T00:59:11.161Z,29.60
2023-05-21T01:00:11.259Z,29.50
2023-05-21T01:01:11.270Z,29.00
2023-05-21T01:02:11.249Z,26.90
2023-05-21T01:03:11.334Z,29.90
2023-05-21T01:04:11.110Z,29.90
2023-05-21T01:05:11.127Z,30.40
2023-05-21T01:06:11.089Z,33.00
2023-05-21T01:07:11.096Z,27.80
2023-05-21T01:08:11.101Z,30.00
2023-05-21T01:09:11.111Z,29.30
2023-05-21T01:10:11.100Z,31.90
2023-05-21T01:11:11.064Z,32.80
2023-05-21T01:12:11.066Z,30.10
2023-05-21T01:13:11.100Z,31.60
2023-05-21T01:14:11.073Z,31.50
2023-05-21T01:15:11.041Z,32.10
2023-05-21T01:16:11.030Z,29.90
2023-05-21T01:17:11.205Z,29.10
2023-05-21T01:18:11.026Z,35.40
2023-05-21T01:19:11.151Z,31.10
2023-05-21T01:20:43.467Z,30.30
2023-05-21T01:21:10.966Z,32.90
2023-05-21T01:22:43.522Z,30.10
2023-05-21T01:23:43.397Z,35.90
2023-05-21T01:24:10.937Z,32.40
2023-05-21T01:25:43.572Z,30.50
2023-05-21T01:26:42.894Z,30.30
2023-05-21T01:27:10.941Z,32.00
2023-05-21T01:28:10.920Z,28.90
2023-05-21T01:29:10.925Z,29.50
2023-05-21T01:30:10.930Z,29.50
2023-05-21T01:31:10.882Z,33.30
2023-05-21T01:32:10.880Z,30.90
2023-05-21T01:33:11.099Z,32.80
2023-05-21T01:34:10.966Z,32.90
2023-05-21T01:35:10.865Z,34.00
2023-05-21T01:36:11.858Z,34.30
2023-05-21T01:37:10.907Z,32.10
2023-05-21T01:38:10.821Z,30.60
2023-05-21T01:39:10.889Z,33.30
2023-05-21T01:40:11.872Z,28.90
2023-05-21T01:41:10.884Z,33.10
2023-05-21T01:42:10.814Z,33.90
2023-05-21T01:43:10.797Z,30.90
2023-05-21T01:44:10.800Z,31.80
2023-05-21T01:45:10.827Z,34.30
2023-05-21T01:46:10.829Z,32.60
2023-05-21T01:47:10.766Z,32.20
2023-05-21T01:48:10.788Z,32.30
2023-05-21T01:49:10.776Z,32.00
2023-05-21T01:50:10.805Z,31.70
2023-05-21T01:51:10.792Z,33.90
2023-05-21T01:52:10.766Z,33.10
2023-05-21T01:53:10.730Z,35.00
2023-05-21T01:54:10.722Z,34.60
2023-05-21T01:55:10.706Z,32.00
2023-05-21T01:56:10.734Z,32.70
2023-05-21T01:57:10.727Z,31.20
2023-05-21T01:58:10.697Z,32.10
2023-05-21T01:59:10.727Z,33.80
2023-05-21T02:00:10.701Z,32.80
2023-05-21T02:01:11.250Z,31.80
2023-05-21T02:02:10.862Z,33.50
2023-05-21T02:03:10.804Z,32.10
2023-05-21T02:04:10.680Z,32.80
2023-05-21T02:05:10.616Z,30.60
2023-05-21T02:06:10.650Z,30.30
2023-05-21T02:07:10.625Z,36.60
2023-05-21T02:08:10.620Z,31.80
2023-05-21T02:09:10.592Z,31.80
2023-05-21T02:10:10.607Z,32.70
2023-05-21T02:11:10.628Z,37.50
2023-05-21T02:12:10.578Z,39.00
2023-05-21T02:13:10.562Z,33.90
2023-05-21T02:14:10.584Z,30.90
2023-05-21T02:15:10.546Z,31.70
2023-05-21T02:16:10.598Z,34.00
2023-05-21T02:17:10.530Z,35.50
2023-05-21T02:18:10.590Z,35.60
2023-05-21T02:19:10.631Z,33.40
2023-05-21T02:20:10.574Z,32.50
2023-05-21T02:21:10.511Z,33.70
2023-05-21T02:22:10.530Z,35.10
2023-05-21T02:23:10.495Z,34.10
2023-05-21T02:24:10.471Z,35.20
2023-05-21T02:25:10.490Z,34.00
2023-05-21T02:26:10.516Z,33.10
2023-05-21T02:27:10.484Z,33.20
2023-05-21T02:28:10.502Z,33.40
2023-05-21T02:29:10.466Z,35.10
2023-05-21T02:30:10.446Z,33.20
2023-05-21T02:31:10.450Z,32.10
2023-05-21T02:32:10.467Z,37.10
2023-05-21T02:33:10.447Z,35.70
2023-05-21T02:34:10.501Z,37.70
2023-05-21T02:35:10.463Z,33.50
2023-05-21T02:36:11.241Z,34.50
2023-05-21T02:37:10.630Z,32.90
2023-05-21T02:38:10.416Z,34.80
2023-05-21T02:39:10.459Z,34.20
2023-05-21T02:40:10.430Z,34.70
2023-05-21T02:41:11.259Z,36.70
2023-05-21T02:42:10.432Z,34.80
2023-05-21T02:43:10.392Z,36.60
2023-05-21T02:44:10.416Z,35.60
2023-05-21T02:45:10.491Z,35.20
2023-05-21T02:46:10.404Z,32.90
2023-05-21T02:47:10.421Z,37.60
2023-05-21T02:48:10.372Z,35.30
2023-05-21T02:49:10.303Z,33.70
2023-05-21T02:50:10.350Z,41.00
2023-05-21T02:51:10.282Z,34.30
2023-05-21T02:52:10.318Z,34.00
2023-05-21T02:53:10.289Z,38.10
2023-05-21T02:54:10.273Z,34.50
2023-05-21T02:55:10.266Z,37.70
2023-05-21T02:56:10.302Z,38.40
2023-05-21T02:57:10.249Z,38.20
2023-05-21T02:58:11.265Z,35.80
2023-05-21T02:59:10.202Z,38.00
2023-05-21T03:00:10.208Z,38.20
2023-05-21T03:01:10.317Z,34.20
2023-05-21T03:02:10.232Z,33.30
2023-05-21T03:03:10.271Z,39.50
2023-05-21T03:04:10.225Z,35.20
2023-05-21T03:05:10.208Z,37.30
2023-05-21T03:06:10.144Z,33.00
2023-05-21T03:07:10.197Z,37.50
2023-05-21T03:08:10.167Z,38.50
2023-05-21T03:09:10.736Z,36.90
2023-05-21T03:10:10.117Z,36.80
2023-05-21T03:11:10.152Z,38.60
2023-05-21T03:12:10.100Z,37.60
2023-05-21T03:13:10.220Z,38.00
2023-05-21T03:14:10.103Z,35.50
2023-05-21T03:15:10.135Z,35.40
2023-05-21T03:16:10.194Z,36.40
2023-05-21T03:17:10.816Z,37.70
2023-05-21T03:18:10.147Z,37.80
2023-05-21T03:19:10.157Z,32.80
2023-05-21T03:20:10.109Z,34.50
2023-05-21T03:21:10.077Z,35.20
2023-05-21T03:22:10.077Z,39.10
2023-05-21T03:23:10.064Z,34.50
2023-05-21T03:24:09.995Z,36.10
2023-05-21T03:25:10.027Z,38.30
2023-05-21T03:26:10.021Z,36.00
2023-05-21T03:27:09.986Z,35.50
2023-05-21T03:28:09.999Z,39.30
2023-05-21T03:29:09.992Z,38.80
2023-05-21T03:30:10.781Z,38.60
2023-05-21T03:31:09.959Z,37.80
2023-05-21T03:32:10.012Z,36.50
2023-05-21T03:33:09.951Z,37.70
2023-05-21T03:34:09.919Z,37.40
2023-05-21T03:35:09.922Z,37.90
2023-05-21T03:36:09.946Z,40.70
2023-05-21T03:37:09.909Z,38.50
2023-05-21T03:38:09.891Z,42.80
2023-05-21T03:39:09.934Z,39.00
2023-05-21T03:40:09.891Z,38.10
2023-05-21T03:41:09.910Z,39.30
2023-05-21T03:42:09.904Z,38.30
2023-05-21T03:43:09.947Z,36.30
2023-05-21T03:44:09.906Z,37.70
2023-05-21T03:45:09.862Z,38.20
2023-05-21T03:46:09.918Z,37.30
2023-05-21T04:02:46.128Z,35.80
2023-05-21T04:03:46.220Z,38.70
2023-05-21T04:04:46.161Z,40.50
2023-05-21T04:05:45.993Z,40.60
2023-05-21T04:06:46.000Z,39.50
2023-05-21T04:07:45.984Z,42.00
2023-05-21T04:08:46.033Z,41.00
2023-05-21T04:09:45.982Z,40.10
2023-05-21T04:10:45.992Z,41.30
2023-05-21T04:11:47.127Z,39.80
2023-05-21T04:12:47.135Z,40.50
2023-05-21T04:13:47.144Z,36.60
2023-05-21T04:14:47.129Z,42.00
2023-05-21T04:15:47.147Z,38.30
2023-05-21T04:16:47.095Z,41.30
2023-05-21T04:17:47.185Z,41.10
2023-05-21T04:18:47.202Z,40.90
2023-05-21T04:19:47.108Z,40.10
2023-05-21T04:20:47.114Z,36.50
2023-05-21T04:21:47.082Z,43.10
2023-05-21T04:22:47.037Z,38.50
2023-05-21T04:23:47.085Z,39.30
2023-05-21T04:24:47.035Z,38.10
2023-05-21T04:25:47.212Z,37.00
2023-05-21T04:26:47.010Z,37.90
2023-05-21T04:27:46.985Z,37.70
2023-05-21T04:28:47.013Z,36.00
2023-05-21T04:29:48.467Z,37.10
2023-05-21T04:30:47.036Z,35.80
2023-05-21T04:31:50.467Z,40.10
2023-05-21T04:32:48.046Z,38.80
2023-05-21T04:33:46.988Z,38.40
2023-05-21T04:34:47.773Z,38.20
2023-05-21T04:35:46.968Z,36.80
2023-05-21T04:36:47.682Z,33.90
2023-05-21T04:37:46.914Z,36.50
2023-05-21T04:38:47.617Z,34.30
2023-05-21T04:39:47.031Z,35.80
2023-05-21T04:40:46.905Z,36.20
2023-05-21T04:41:46.921Z,35.20
2023-05-21T04:42:46.898Z,37.40
2023-05-21T04:43:46.864Z,37.40
2023-05-21T04:44:46.888Z,36.40
2023-05-21T04:45:46.893Z,37.10
2023-05-21T04:46:46.866Z,33.60
2023-05-21T04:47:46.896Z,35.00
2023-05-21T04:48:47.849Z,36.50
2023-05-21T04:49:46.812Z,34.90
2023-05-21T04:50:46.917Z,36.90
2023-05-21T04:51:46.834Z,36.80
2023-05-21T04:52:46.833Z,33.30
2023-05-21T04:53:46.891Z,36.70
2023-05-21T04:54:48.249Z,39.00
2023-05-21T04:55:46.774Z,34.10
2023-05-21T04:56:46.758Z,34.20
2023-05-21T04:57:46.756Z,35.20
2023-05-21T04:58:46.773Z,31.80
2023-05-21T04:59:46.784Z,32.80
2023-05-21T05:00:47.005Z,32.60
2023-05-21T05:01:46.786Z,32.90
2023-05-21T05:02:46.855Z,37.90
2023-05-21T05:03:46.732Z,35.40
2023-05-21T05:04:46.767Z,38.10
2023-05-21T05:05:46.721Z,37.80
2023-05-21T05:06:47.292Z,35.60
2023-05-21T05:07:46.706Z,34.50
2023-05-21T05:08:46.728Z,38.20
2023-05-21T05:09:46.790Z,33.80
2023-05-21T05:10:46.786Z,35.40
2023-05-21T05:11:46.665Z,34.20
2023-05-21T05:12:46.661Z,32.10
2023-05-21T05:13:46.673Z,32.00
2023-05-21T05:14:46.684Z,32.80
2023-05-21T05:15:48.697Z,32.30
2023-05-21T05:16:47.717Z,29.50
2023-05-21T05:17:46.669Z,31.70
2023-05-21T05:18:47.408Z,34.70
2023-05-21T05:19:47.330Z,35.20
2023-05-21T05:20:46.670Z,35.00
2023-05-21T05:21:47.336Z,31.60
2023-05-21T05:22:46.584Z,35.90
2023-05-21T05:23:46.580Z,37.50
2023-05-21T05:24:46.568Z,33.30
2023-05-21T05:25:46.554Z,33.70
2023-05-21T05:26:46.610Z,31.30
2023-05-21T05:27:46.583Z,30.20
2023-05-21T05:28:46.548Z,33.40
2023-05-21T05:29:46.510Z,36.70
2023-05-21T05:30:46.736Z,31.00
2023-05-21T05:31:46.538Z,30.90
2023-05-21T05:32:46.545Z,32.00
2023-05-21T05:33:46.543Z,27.90
2023-05-21T05:34:46.484Z,33.00
2023-05-21T05:35:46.540Z,30.50
2023-05-21T05:36:46.477Z,30.80
2023-05-21T05:37:46.470Z,32.00
2023-05-21T05:38:49.263Z,33.50
2023-05-21T05:40:19.199Z,31.90
2023-05-21T05:40:46.475Z,33.60
2023-05-21T05:41:46.393Z,29.00
2023-05-21T05:42:47.430Z,31.10
2023-05-21T05:43:46.421Z,30.00
2023-05-21T05:44:46.823Z,34.30
2023-05-21T05:45:46.403Z,30.70
2023-05-21T05:46:47.359Z,29.80
2023-05-21T05:47:46.425Z,30.50
2023-05-21T05:48:46.416Z,29.90
2023-05-21T05:49:46.388Z,30.20
2023-05-21T05:50:46.344Z,30.00
2023-05-21T05:51:46.385Z,30.50
2023-05-21T05:52:46.382Z,29.50
2023-05-21T05:53:46.386Z,29.60
2023-05-21T05:54:46.420Z,30.10
2023-05-21T05:55:47.474Z,31.00
2023-05-21T05:56:47.123Z,28.90
2023-05-21T05:57:46.285Z,28.80
2023-05-21T05:58:46.622Z,31.60
2023-05-21T05:59:46.372Z,30.80
2023-05-21T06:00:46.262Z,31.40
2023-05-21T06:01:46.460Z,32.40
2023-05-21T06:02:46.348Z,28.30
2023-05-21T06:03:46.837Z,27.60
2023-05-21T06:04:46.319Z,30.00
2023-05-21T06:05:46.237Z,29.80
2023-05-21T06:06:46.251Z,31.40
2023-05-21T06:07:46.316Z,28.90
2023-05-21T06:08:46.270Z,31.40
2023-05-21T06:09:46.247Z,32.50
2023-05-21T06:10:46.775Z,29.90
2023-05-21T06:11:46.196Z,28.50
2023-05-21T06:12:46.246Z,27.60
2023-05-21T06:13:46.260Z,29.80
2023-05-21T06:14:46.176Z,31.20
2023-05-21T06:15:46.278Z,30.70
2023-05-21T06:16:46.230Z,28.40
2023-05-21T06:17:46.251Z,27.70
2023-05-21T06:18:46.648Z,28.10
2023-05-21T06:19:46.165Z,30.90
2023-05-21T06:20:46.477Z,32.40
2023-05-21T06:21:46.988Z,30.10
2023-05-21T06:22:46.129Z,29.40
2023-05-21T06:23:46.623Z,29.60
2023-05-21T06:24:46.086Z,32.90
2023-05-21T06:25:46.119Z,28.60
2023-05-21T06:26:46.086Z,29.30
2023-05-21T06:27:46.103Z,27.30
2023-05-21T06:28:46.138Z,28.80
2023-05-21T06:29:46.064Z,29.80
2023-05-21T06:30:46.067Z,28.50
2023-05-21T06:31:46.078Z,30.90
2023-05-21T06:32:47.140Z,29.20
2023-05-21T06:33:46.216Z,30.60
2023-05-21T06:34:46.087Z,29.10
2023-05-21T06:35:46.023Z,32.40
2023-05-21T06:36:46.033Z,26.80
2023-05-21T06:37:46.037Z,26.40
2023-05-21T06:38:46.022Z,28.80
2023-05-21T06:39:45.984Z,27.80
2023-05-21T06:40:46.014Z,28.50
2023-05-21T06:41:45.989Z,28.90
2023-05-21T06:42:45.953Z,31.20
2023-05-21T06:43:45.959Z,28.10
2023-05-21T06:44:46.004Z,26.00
2023-05-21T06:45:45.986Z,27.70
2023-05-21T06:46:46.969Z,29.60
2023-05-21T06:47:46.034Z,27.80
2023-05-21T06:48:45.943Z,28.60
2023-05-21T06:49:45.956Z,28.20
2023-05-21T06:50:45.935Z,29.70
2023-05-21T06:51:45.952Z,28.80
2023-05-21T06:52:45.891Z,27.70
2023-05-21T06:53:45.867Z,27.80
2023-05-21T06:54:45.881Z,26.50
2023-05-21T06:55:46.003Z,28.40
2023-05-21T06:56:45.936Z,27.00
2023-05-21T06:57:45.833Z,24.20
2023-05-21T06:58:45.913Z,28.70
2023-05-21T06:59:45.901Z,26.20
2023-05-21T07:00:45.927Z,25.10
2023-05-21T07:01:46.381Z,25.30
2023-05-21T07:02:46.004Z,24.60
2023-05-21T07:03:46.669Z,25.40
2023-05-21T07:04:45.923Z,25.20
2023-05-21T07:05:45.994Z,24.70
2023-05-21T07:06:45.915Z,21.80
2023-05-21T07:07:46.527Z,23.90
2023-05-21T07:08:45.863Z,23.40
2023-05-21T07:09:45.833Z,24.60
2023-05-21T07:10:45.828Z,23.10
2023-05-21T07:11:45.746Z,24.10
2023-05-21T07:12:45.762Z,24.20
2023-05-21T07:13:45.801Z,23.20
2023-05-21T07:14:46.376Z,26.60
2023-05-21T07:15:45.800Z,26.50
2023-05-21T07:16:45.819Z,24.20
2023-05-21T07:17:45.809Z,24.50
2023-05-21T07:18:45.858Z,24.90
2023-05-21T07:19:45.758Z,22.40
2023-05-21T07:20:45.787Z,23.00
2023-05-21T07:21:45.791Z,22.90
2023-05-21T07:22:46.412Z,22.40
2023-05-21T07:23:45.735Z,21.90
2023-05-21T07:24:45.661Z,23.50
2023-05-21T07:25:45.681Z,22.80
2023-05-21T07:26:45.680Z,22.90
2023-05-21T07:27:45.689Z,22.90
2023-05-21T07:28:45.655Z,25.50
2023-05-21T07:29:45.641Z,24.10
2023-05-21T07:30:45.853Z,24.60
2023-05-21T07:31:45.672Z,24.40
2023-05-21T07:32:46.537Z,24.20
2023-05-21T07:33:45.647Z,27.30
2023-05-21T07:34:45.644Z,22.00
2023-05-21T07:35:46.474Z,23.20
2023-05-21T07:36:45.562Z,22.50
2023-05-21T07:37:46.429Z,23.00
2023-05-21T07:38:45.559Z,21.10
2023-05-21T07:39:45.593Z,23.30
2023-05-21T07:40:45.598Z,23.80
2023-05-21T07:41:45.566Z,22.30
2023-05-21T07:42:45.558Z,21.50
2023-05-21T07:43:45.712Z,25.50
2023-05-21T07:44:45.597Z,22.60
2023-05-21T07:45:45.560Z,23.00
2023-05-21T07:46:45.765Z,21.40
2023-05-21T07:47:45.592Z,21.90
2023-05-21T07:48:47.397Z,22.60
2023-05-21T07:49:45.457Z,23.00
2023-05-21T07:50:45.443Z,23.10
2023-05-21T07:51:45.462Z,22.20
2023-05-21T07:52:45.566Z,21.70
2023-05-21T07:53:45.417Z,23.80
2023-05-21T07:54:45.446Z,21.10
2023-05-21T07:55:45.422Z,21.90
2023-05-21T07:56:45.385Z,21.10
2023-05-21T07:57:45.435Z,22.30
2023-05-21T07:58:45.368Z,19.50
2023-05-21T07:59:45.386Z,23.10
2023-05-21T08:00:45.364Z,21.80
2023-05-21T08:01:45.356Z,20.00
2023-05-21T08:02:45.468Z,20.20
2023-05-21T08:03:45.446Z,22.10
2023-05-21T08:04:45.441Z,21.40
2023-05-21T08:05:45.359Z,19.00
2023-05-21T08:06:45.360Z,19.20
2023-05-21T08:07:45.377Z,20.30
2023-05-21T08:08:45.325Z,21.00
2023-05-21T08:09:45.326Z,20.00
2023-05-21T08:10:45.306Z,19.80
2023-05-21T08:11:45.306Z,19.40
2023-05-21T08:12:45.339Z,20.80
2023-05-21T08:13:45.314Z,20.20
2023-05-21T08:14:45.283Z,19.80
2023-05-21T08:15:45.286Z,19.30
2023-05-21T08:16:45.368Z,24.00
2023-05-21T08:17:45.363Z,18.80
2023-05-21T08:18:45.279Z,21.60
2023-05-21T08:19:45.251Z,21.00
2023-05-21T08:20:45.254Z,21.40
2023-05-21T08:21:45.283Z,19.30
2023-05-21T08:22:45.268Z,19.60
2023-05-21T08:23:46.321Z,21.40
2023-05-21T08:24:45.259Z,22.90
2023-05-21T08:25:45.285Z,22.20
2023-05-21T08:26:45.161Z,23.50
2023-05-21T08:27:45.191Z,20.30
2023-05-21T08:28:45.145Z,20.00
2023-05-21T08:29:45.198Z,19.70
2023-05-21T08:30:45.152Z,19.70
2023-05-21T08:31:45.193Z,17.70
2023-05-21T08:32:45.218Z,19.40
2023-05-21T08:33:45.435Z,19.50
2023-05-21T08:34:45.165Z,18.20
2023-05-21T08:35:45.107Z,16.70
2023-05-21T08:37:18.080Z,18.00
2023-05-21T08:37:45.156Z,17.50
2023-05-21T08:38:45.108Z,19.40
2023-05-21T08:39:45.095Z,19.40
2023-05-21T08:40:45.077Z,18.40
2023-05-21T08:41:45.078Z,18.90
2023-05-21T08:42:45.098Z,23.70
2023-05-21T08:43:45.061Z,17.70
2023-05-21T08:44:45.100Z,17.10
2023-05-21T08:45:45.043Z,18.60
2023-05-21T08:46:45.028Z,18.20
2023-05-21T08:47:45.042Z,19.00
2023-05-21T08:48:45.035Z,19.90
2023-05-21T08:50:17.900Z,19.70
2023-05-21T08:50:45.000Z,19.70
2023-05-21T08:51:45.948Z,16.90
2023-05-21T08:52:44.959Z,19.00
2023-05-21T08:53:44.989Z,19.10
2023-05-21T08:54:45.022Z,17.80
2023-05-21T08:55:44.996Z,16.60
2023-05-21T08:56:45.426Z,16.40
2023-05-21T08:57:44.975Z,19.00
2023-05-21T08:58:44.952Z,18.40
2023-05-21T08:59:44.932Z,16.40
2023-05-21T09:00:44.899Z,17.60
2023-05-21T09:01:46.051Z,17.60
2023-05-21T09:02:44.953Z,18.20
2023-05-21T09:03:44.945Z,18.00
2023-05-21T09:04:44.961Z,17.40
2023-05-21T09:05:44.887Z,18.20
2023-05-21T09:06:44.884Z,19.10
2023-05-21T09:07:44.888Z,19.80
2023-05-21T09:08:44.873Z,16.50
2023-05-21T09:09:44.887Z,17.10
2023-05-21T09:10:44.887Z,16.50
2023-05-21T09:11:44.844Z,17.00
2023-05-21T09:12:44.838Z,17.70
2023-05-21T09:13:44.833Z,16.70
2023-05-21T09:14:44.859Z,16.60
2023-05-21T09:15:44.778Z,17.90
2023-05-21T09:16:44.821Z,16.60
2023-05-21T09:17:44.845Z,16.60
2023-05-21T09:18:44.803Z,17.10
2023-05-21T09:19:44.784Z,14.90
2023-05-21T09:20:44.758Z,16.80
2023-05-21T09:21:44.800Z,15.50
2023-05-21T09:22:44.777Z,15.50
2023-05-21T09:23:44.761Z,17.20
2023-05-21T09:24:44.838Z,16.40
2023-05-21T09:25:44.748Z,16.60
2023-05-21T09:26:44.744Z,18.40
2023-05-21T09:27:44.732Z,17.70
2023-05-21T09:28:44.735Z,15.30
2023-05-21T09:29:44.713Z,16.70
2023-05-21T09:30:44.764Z,16.30
2023-05-21T09:31:44.808Z,15.60
2023-05-21T09:32:44.704Z,16.90
2023-05-21T09:33:44.682Z,16.00
2023-05-21T09:34:44.651Z,15.00
2023-05-21T09:35:44.703Z,15.20
2023-05-21T09:36:44.673Z,14.10
2023-05-21T09:37:44.695Z,18.20
2023-05-21T09:38:44.710Z,16.10
2023-05-21T09:39:44.637Z,15.90
2023-05-21T09:40:44.693Z,14.60
2023-05-21T09:41:44.639Z,14.10
2023-05-21T09:42:44.664Z,15.20
2023-05-21T09:43:44.666Z,16.00
2023-05-21T09:44:44.626Z,13.50
2023-05-21T09:45:44.628Z,15.50
2023-05-21T09:46:44.663Z,14.70
2023-05-21T09:47:44.683Z,16.40
2023-05-21T09:48:44.560Z,14.20
2023-05-21T09:49:44.540Z,16.70
2023-05-21T09:50:44.551Z,14.30
2023-05-21T09:51:44.560Z,14.90
2023-05-21T09:52:44.580Z,15.60
2023-05-21T09:53:44.569Z,14.90
2023-05-21T09:54:45.415Z,16.10
2023-05-21T09:55:44.559Z,16.80
2023-05-21T09:56:44.577Z,15.60
2023-05-21T09:57:44.518Z,17.40
2023-05-21T09:58:44.513Z,14.50
2023-05-21T09:59:44.545Z,17.50
2023-05-21T10:00:44.530Z,14.30
2023-05-21T10:01:44.527Z,14.20
2023-05-21T10:02:44.595Z,16.30
2023-05-21T10:03:44.520Z,16.30
2023-05-21T10:04:44.554Z,14.70
2023-05-21T10:05:44.454Z,13.60
2023-05-21T10:06:44.478Z,15.20
2023-05-21T10:07:44.475Z,15.60
2023-05-21T10:08:44.427Z,17.30
2023-05-21T10:09:44.473Z,14.30
2023-05-21T10:10:44.433Z,16.80
2023-05-21T10:11:44.444Z,14.30
2023-05-21T10:12:44.402Z,14.30
2023-05-21T10:13:44.388Z,15.90
2023-05-21T10:14:44.393Z,15.80
2023-05-21T10:15:44.445Z,15.70
2023-05-21T10:16:44.578Z,13.10
2023-05-21T10:17:44.444Z,14.80
2023-05-21T10:18:44.431Z,13.80
2023-05-21T10:19:44.352Z,16.90
2023-05-21T10:20:44.372Z,14.30
2023-05-21T10:21:44.355Z,14.70
2023-05-21T10:22:44.324Z,13.10
2023-05-21T10:23:45.337Z,12.50
2023-05-21T10:24:44.342Z,14.10
2023-05-21T10:25:44.448Z,13.40
2023-05-21T10:26:44.293Z,12.90
2023-05-21T10:27:44.308Z,15.70
2023-05-21T10:28:44.361Z,13.60
2023-05-21T10:29:44.329Z,16.00
2023-05-21T10:30:44.311Z,13.10
2023-05-21T10:31:44.305Z,13.30
2023-05-21T10:32:44.380Z,14.40
2023-05-21T10:33:44.255Z,14.80
2023-05-21T10:34:44.245Z,15.10
2023-05-21T10:35:44.245Z,13.60
2023-05-21T10:36:44.274Z,14.80
2023-05-21T10:37:44.210Z,16.70
2023-05-21T10:38:44.211Z,14.30
2023-05-21T10:39:44.226Z,13.40
2023-05-21T10:40:44.198Z,13.60
2023-05-21T10:41:44.189Z,13.40
2023-05-21T10:42:44.199Z,12.70
2023-05-21T10:43:44.190Z,17.50
2023-05-21T10:44:44.189Z,12.90
2023-05-21T10:45:44.249Z,16.10
2023-05-21T10:46:44.221Z,14.00
2023-05-21T10:47:44.196Z,13.20
2023-05-21T10:48:44.189Z,14.00
2023-05-21T10:49:44.167Z,14.30
2023-05-21T10:50:44.125Z,20.50
2023-05-21T10:51:44.155Z,13.80
2023-05-21T10:52:44.126Z,14.00
2023-05-21T10:53:44.164Z,13.30
2023-05-21T10:54:44.101Z,12.30
2023-05-21T10:55:44.070Z,13.20
2023-05-21T10:56:44.172Z,13.60
2023-05-21T10:57:44.166Z,13.70
2023-05-21T10:58:46.972Z,15.10
2023-05-21T10:59:44.105Z,13.20
2023-05-21T11:00:44.081Z,13.70
2023-05-21T11:01:44.157Z,14.10
2023-05-21T11:02:44.198Z,15.60
2023-05-21T11:03:44.201Z,15.70
2023-05-21T11:04:44.045Z,13.70
2023-05-21T11:05:44.044Z,13.30
2023-05-21T11:06:44.086Z,11.40
2023-05-21T11:07:44.000Z,13.70
2023-05-21T11:08:44.020Z,16.30
2023-05-21T11:09:43.997Z,12.00
2023-05-21T11:10:43.988Z,15.90
2023-05-21T11:11:44.051Z,14.50
2023-05-21T11:12:43.996Z,12.20
2023-05-21T11:13:44.011Z,13.60
2023-05-21T11:14:43.982Z,13.00
2023-05-21T11:15:43.998Z,12.60
2023-05-21T11:16:43.969Z,14.70
2023-05-21T11:17:44.003Z,15.10
2023-05-21T11:18:43.940Z,13.90
2023-05-21T11:19:44.086Z,13.50
2023-05-21T11:20:43.909Z,13.10
2023-05-21T11:21:43.981Z,13.80
2023-05-21T11:22:44.022Z,13.70
2023-05-21T11:23:43.894Z,14.70
2023-05-21T11:24:43.956Z,13.30
2023-05-21T11:25:43.899Z,12.60
2023-05-21T11:26:43.894Z,14.00
2023-05-21T11:27:43.906Z,15.40
2023-05-21T11:28:43.871Z,13.90
2023-05-21T11:29:43.889Z,14.20
2023-05-21T11:30:43.974Z,12.10
2023-05-21T11:31:43.996Z,12.80
2023-05-21T11:32:43.898Z,19.00
2023-05-21T11:33:43.811Z,13.70
2023-05-21T11:34:43.890Z,12.30
2023-05-21T11:35:43.818Z,14.90
2023-05-21T11:36:43.813Z,14.00
2023-05-21T11:37:43.877Z,14.90
2023-05-21T11:38:43.831Z,12.40
2023-05-21T11:39:43.862Z,16.50
2023-05-21T11:40:43.799Z,16.50
2023-05-21T11:41:43.812Z,13.50
2023-05-21T11:42:43.763Z,15.50
2023-05-21T11:43:43.784Z,16.40
2023-05-21T11:44:44.791Z,14.10
2023-05-21T11:45:43.755Z,12.40
2023-05-21T11:46:43.761Z,13.80
2023-05-21T11:47:43.781Z,13.10
2023-05-21T11:48:43.741Z,15.00
2023-05-21T11:49:43.760Z,13.80
2023-05-21T11:50:43.730Z,15.50
2023-05-21T11:51:43.709Z,12.50
2023-05-21T11:52:43.683Z,13.50
2023-05-21T11:53:44.292Z,14.90
2023-05-21T11:54:44.735Z,15.30
2023-05-21T11:55:43.925Z,13.40
2023-05-21T11:56:43.714Z,14.60
2023-05-21T11:57:43.702Z,15.30
2023-05-21T11:58:43.679Z,14.20
2023-05-21T11:59:43.653Z,15.90
2023-05-21T12:00:43.689Z,15.20
2023-05-21T12:01:43.684Z,13.30
2023-05-21T12:02:43.660Z,14.90
2023-05-21T12:03:43.749Z,13.30
2023-05-21T12:04:43.613Z,15.50
2023-05-21T12:05:43.652Z,13.20
2023-05-21T12:06:43.616Z,13.90
2023-05-21T12:07:43.585Z,13.70
2023-05-21T12:08:43.570Z,15.50
2023-05-21T12:09:43.598Z,13.10
2023-05-21T12:10:45.035Z,14.00
2023-05-21T12:11:44.556Z,13.70
2023-05-21T12:12:54.916Z,15.70
2023-05-21T12:13:45.567Z,15.10
2023-05-21T12:14:44.537Z,14.10
2023-05-21T12:15:43.583Z,12.80
2023-05-21T12:16:43.629Z,16.90
2023-05-21T12:17:43.560Z,15.00
2023-05-21T12:18:43.556Z,15.00
2023-05-21T12:19:43.519Z,13.20
2023-05-21T12:20:43.495Z,15.00
2023-05-21T12:21:43.530Z,12.90
2023-05-21T12:22:43.536Z,13.50
2023-05-21T12:23:44.507Z,14.90
2023-05-21T12:24:43.507Z,14.70
2023-05-21T12:25:43.472Z,14.90
2023-05-21T12:26:43.516Z,15.60
2023-05-21T12:27:43.487Z,15.50
2023-05-21T12:28:43.479Z,14.20
2023-05-21T12:29:43.458Z,16.10
2023-05-21T12:30:43.438Z,18.10
2023-05-21T12:31:43.524Z,13.50
2023-05-21T12:32:44.226Z,17.20
2023-05-21T12:33:43.454Z,18.90
2023-05-21T12:34:43.420Z,14.90
2023-05-21T12:35:43.410Z,14.50
2023-05-21T12:36:43.370Z,16.50
2023-05-21T12:37:43.420Z,15.50
2023-05-21T12:38:43.483Z,13.20
2023-05-21T12:39:43.508Z,15.70
2023-05-21T12:40:43.467Z,15.00
2023-05-21T12:41:43.402Z,15.90
2023-05-21T12:42:43.361Z,15.30
2023-05-21T12:43:43.376Z,15.30
2023-05-21T12:44:43.400Z,16.00
2023-05-21T12:45:43.471Z,15.30
2023-05-21T12:46:43.412Z,15.80
2023-05-21T12:47:43.346Z,13.70
2023-05-21T12:48:43.368Z,17.40
2023-05-21T12:49:43.290Z,14.70
2023-05-21T12:50:43.363Z,15.60
2023-05-21T12:51:43.333Z,14.20
2023-05-21T12:52:43.372Z,15.50
2023-05-21T12:53:43.312Z,14.60
2023-05-21T12:54:43.299Z,15.90
2023-05-21T12:55:43.912Z,17.60
2023-05-21T12:56:43.288Z,16.60
2023-05-21T12:57:43.286Z,14.00
2023-05-21T12:58:43.261Z,16.00
2023-05-21T12:59:43.258Z,13.90
2023-05-21T13:00:44.286Z,14.20
2023-05-21T13:01:43.301Z,13.40
2023-05-21T13:02:44.823Z,14.60
2023-05-21T13:03:43.249Z,17.60
2023-05-21T13:04:43.262Z,16.70
2023-05-21T13:05:43.206Z,16.90
2023-05-21T13:06:43.217Z,15.70
2023-05-21T13:07:43.350Z,18.20